Time;durP1;ratioP1;P1;durP2;ratioP2;P2;SDS_P1;SDS_P2;PMS_P1;PMS_P2;Temp;Humidity;BMP_temperature;BMP_pressure;BME280_temperature;BME280_humidity;BME280_pressure;Samples;Min_cycle;Max_cycle;Signal;HPM_P1;HPM_P2
2022/07/28 00:00:50;;;;;;;;;;;;;;;13.05;100.00;100603.28;3058697;19;1838;-47
2022/07/28 00:01:52;;;;;;;;;;;;;;;13.04;100.00;100604.25;3058518;19;869;-47
2022/07/28 00:02:57;;;;;;;;;;;;;;;13.01;100.00;100607.16;3058457;19;900;-48
2022/07/28 00:03:59;;;;;;;;;;;;;;;12.99;100.00;100598.38;3057980;19;1047;-47
2022/07/28 00:05:05;;;;;;;;;;;;;;;12.98;100.00;100602.00;3058121;19;1205;-47
2022/07/28 00:06:06;;;;;;;;;;;;;;;12.95;100.00;100602.22;3058235;19;901;-47
2022/07/28 00:07:11;;;;;;;;;;;;;;;12.95;100.00;100599.53;3058261;19;869;-48
2022/07/28 00:08:13;;;;;;;;;;;;;;;12.92;100.00;100602.47;3058031;19;1175;-48
2022/07/28 00:09:17;;;;;;;;;;;;;;;12.89;100.00;100602.66;3058032;19;1789;-47
2022/07/28 00:10:22;;;;;;;;;;;;;;;12.88;100.00;100606.31;3056738;19;920;-47
2022/07/28 00:11:23;;;;;;;;;;;;;;;12.85;100.00;100601.16;3058185;19;881;-48
2022/07/28 00:12:28;;;;;;;;;;;;;;;12.83;100.00;100603.06;3057824;19;1036;-47
2022/07/28 00:13:30;;;;;;;;;;;;;;;12.80;100.00;100597.94;3058396;19;979;-47
2022/07/28 00:14:34;;;;;;;;;;;;;;;12.79;100.00;100604.28;3058315;19;901;-48
2022/07/28 00:15:36;;;;;;;;;;;;;;;12.75;100.00;100611.66;3058186;19;1225;-47
2022/07/28 00:16:40;;;;;;;;;;;;;;;12.72;100.00;100605.63;3057841;19;1074;-48
2022/07/28 00:17:42;;;;;;;;;;;;;;;12.71;100.00;100614.63;3058094;19;957;-49
2022/07/28 00:18:47;;;;;;;;;;;;;;;12.68;100.00;100599.63;3057935;19;893;-48
2022/07/28 00:19:49;;;;;;;;;;;;;;;12.67;100.00;100613.16;3058219;19;1027;-49
2022/07/28 00:20:54;;;;;;;;;;;;;;;12.65;100.00;100597.19;3057288;19;1861;-47
2022/07/28 00:21:58;;;;;;;;;;;;;;;12.63;100.00;100602.63;3058218;19;885;-48
2022/07/28 00:23:00;;;;;;;;;;;;;;;12.62;100.00;100606.28;3057966;19;941;-48
2022/07/28 00:24:04;;;;;;;;;;;;;;;12.60;100.00;100600.16;3058060;19;947;-48
2022/07/28 00:25:06;;;;;;;;;;;;;;;12.59;100.00;100614.50;3059775;19;1108;-49
2022/07/28 00:26:11;;;;;;;;;;;;;;;12.59;100.00;100611.81;3057786;19;928;-48
2022/07/28 00:27:13;;;;;;;;;;;;;;;12.58;100.00;100610.09;3057932;19;952;-48
2022/07/28 00:28:18;;;;;;;;;;;;;;;12.56;100.00;100604.00;3058129;19;842;-49
2022/07/28 00:29:19;;;;;;;;;;;;;;;12.54;100.00;100600.59;3057835;19;1028;-49
2022/07/28 00:30:24;;;;;;;;;;;;;;;12.53;100.00;100606.91;3057809;19;1079;-47
2022/07/28 00:31:26;;;;;;;;;;;;;;;12.51;100.00;100606.16;3057940;19;896;-48
2022/07/28 00:32:30;;;;;;;;;;;;;;;12.51;100.00;100603.47;3057988;19;1669;-48
2022/07/28 00:33:32;;;;;;;;;;;;;;;12.49;100.00;100602.72;3057849;19;999;-48
2022/07/28 00:34:37;;;;;;;;;;;;;;;12.47;100.00;100601.94;3057800;19;952;-48
2022/07/28 00:35:41;;;;;;;;;;;;;;;12.47;100.00;100601.94;3057937;19;1697;-49
2022/07/28 00:36:51;;;;;;;;;;;;;;;12.46;100.00;100602.91;3058010;19;888;-48
2022/07/28 00:37:54;;;;;;;;;;;;;;;12.45;100.00;100597.66;3057177;19;1011;-49
2022/07/28 00:38:59;;;;;;;;;;;;;;;12.41;100.00;100599.69;3056831;19;1647;-48
2022/07/28 00:40:02;;;;;;;;;;;;;;;12.41;100.00;100602.38;3058132;19;932;-50
2022/07/28 00:41:13;;;;;;;;;;;;;;;12.39;100.00;100598.94;3057222;19;1876;-48
2022/07/28 00:42:18;;;;;;;;;;;;;;;12.37;100.00;100600.00;3056865;19;1292;-48
2022/07/28 00:43:22;;;;;;;;;;;;;;;12.34;100.00;100594.84;3057572;19;1020;-47
2022/07/28 00:44:26;;;;;;;;;;;;;;;12.32;100.00;100591.44;3058038;19;1838;-47
2022/07/28 00:45:28;;;;;;;;;;;;;;;12.29;100.00;100595.16;3057834;19;964;-48
2022/07/28 00:46:33;;;;;;;;;;;;;;;12.27;100.00;100589.06;3057820;19;857;-47
2022/07/28 00:47:35;;;;;;;;;;;;;;;12.25;100.00;100593.66;3057829;19;1053;-50
2022/07/28 00:48:44;;;;;;;;;;;;;;;12.23;100.00;100588.41;3057729;19;1384;-49
2022/07/28 00:49:47;;;;;;;;;;;;;;;12.23;100.00;100592.88;3057791;19;862;-48
2022/07/28 00:50:51;;;;;;;;;;;;;;;12.20;100.00;100593.09;3057854;19;905;-48
2022/07/28 00:51:56;;;;;;;;;;;;;;;12.18;100.00;100595.91;3056707;19;1000;-47
2022/07/28 00:52:58;;;;;;;;;;;;;;;12.17;100.00;100586.16;3057077;19;920;-47
2022/07/28 00:54:02;;;;;;;;;;;;;;;12.15;100.00;100585.38;3056592;19;1054;-47
2022/07/28 00:55:07;;;;;;;;;;;;;;;12.14;100.00;100588.16;3057378;19;1300;-49
2022/07/28 00:56:11;;;;;;;;;;;;;;;12.14;100.00;100588.16;3057367;19;1070;-48
2022/07/28 00:57:13;;;;;;;;;;;;;;;12.13;100.00;100586.44;3057867;19;869;-48
2022/07/28 00:58:17;;;;;;;;;;;;;;;12.11;100.00;100578.50;3057482;19;837;-48
2022/07/28 00:59:22;;;;;;;;;;;;;;;12.10;100.00;100581.28;3057654;19;1036;-48
2022/07/28 01:00:23;;;;;;;;;;;;;;;12.09;100.00;100584.91;3057366;19;969;-49
2022/07/28 01:01:28;;;;;;;;;;;;;;;12.07;100.00;100582.38;3057097;19;1833;-48
2022/07/28 01:02:30;;;;;;;;;;;;;;;12.05;100.00;100589.63;3057388;19;846;-49
2022/07/28 01:03:35;;;;;;;;;;;;;;;12.03;100.00;100585.34;3056779;19;1210;-48
2022/07/28 01:04:39;;;;;;;;;;;;;;;11.92;100.00;100569.16;3056548;19;1798;-48
2022/07/28 01:05:46;;;;;;;;;;;;;;;11.98;100.00;100592.78;3056940;19;1365;-49
2022/07/28 01:06:51;;;;;;;;;;;;;;;11.96;100.00;100590.22;3057364;19;948;-48
2022/07/28 01:07:59;;;;;;;;;;;;;;;11.95;100.00;100590.34;3057833;19;888;-49
2022/07/28 01:09:08;;;;;;;;;;;;;;;11.91;100.00;100576.31;3057217;19;1046;-48
2022/07/28 01:10:23;;;;;;;;;;;;;;;11.87;100.00;100581.00;3056102;19;1024;-49
2022/07/28 01:11:28;;;;;;;;;;;;;;;11.84;100.00;100581.19;3056793;19;1020;-48
2022/07/28 01:12:33;;;;;;;;;;;;;;;11.81;100.00;100576.06;3057310;19;1169;-49
2022/07/28 01:13:43;;;;;;;;;;;;;;;11.78;100.00;100584.28;3057535;19;1694;-50
2022/07/28 01:14:49;;;;;;;;;;;;;;;11.74;100.00;100569.34;3057589;19;940;-48
2022/07/28 01:16:11;;;;;;;;;;;;;;;11.71;100.00;100574.88;3056487;19;1051;-49
2022/07/28 01:17:15;;;;;;;;;;;;;;;11.66;100.00;100574.34;3056533;19;968;-49
2022/07/28 01:18:21;;;;;;;;;;;;;;;11.64;100.00;100565.56;3057381;19;936;-49
2022/07/28 01:19:44;;;;;;;;;;;;;;;11.59;100.00;100567.69;3056511;19;925;-49
2022/07/28 01:20:47;;;;;;;;;;;;;;;11.54;100.00;100567.97;3056720;19;842;-47
2022/07/28 01:21:51;;;;;;;;;;;;;;;11.50;100.00;100576.28;3054834;19;1848;-49
2022/07/28 01:22:55;;;;;;;;;;;;;;;11.46;100.00;100575.63;3055147;19;1078;-48
2022/07/28 01:24:07;;;;;;;;;;;;;;;11.42;100.00;100573.25;3056345;19;941;-48
2022/07/28 01:25:18;;;;;;;;;;;;;;;11.37;100.00;100570.00;3056198;19;1067;-49
2022/07/28 01:27:01;;;;;;;;;;;;;;;11.33;100.00;100563.16;3056590;19;888;-49
2022/07/28 01:28:17;;;;;;;;;;;;;;;11.28;100.00;100559.91;3055451;19;1337;-48
2022/07/28 01:29:37;;;;;;;;;;;;;;;11.23;100.00;100562.00;3055480;19;1195;-48
2022/07/28 01:30:43;;;;;;;;;;;;;;;11.18;100.00;100560.47;3055618;19;1251;-47
2022/07/28 01:31:47;;;;;;;;;;;;;;;11.15;100.00;100555.31;3055553;19;960;-48
2022/07/28 01:32:54;;;;;;;;;;;;;;;11.12;100.00;100554.66;3055182;19;1782;-49
2022/07/28 01:33:57;;;;;;;;;;;;;;;11.09;100.00;100550.38;3056105;19;1110;-48
2022/07/28 01:35:04;;;;;;;;;;;;;;;11.08;100.00;100554.00;3057180;19;826;-49
2022/07/28 01:36:16;;;;;;;;;;;;;;;11.04;100.00;100547.13;3057128;19;966;-48
2022/07/28 01:37:19;;;;;;;;;;;;;;;11.01;100.00;100547.31;3056969;19;979;-49
2022/07/28 01:38:24;;;;;;;;;;;;;;;11.01;100.00;100541.13;3056972;19;956;-49
2022/07/28 01:39:27;;;;;;;;;;;;;;;10.98;100.00;100541.31;3056175;19;1143;-48
2022/07/28 01:40:33;;;;;;;;;;;;;;;10.97;100.00;100548.47;3056434;19;810;-49
2022/07/28 01:41:35;;;;;;;;;;;;;;;10.93;100.00;100538.94;3055547;19;1171;-48
2022/07/28 01:42:42;;;;;;;;;;;;;;;10.92;100.00;100541.69;3055731;19;1850;-50
2022/07/28 01:43:45;;;;;;;;;;;;;;;10.89;100.00;100542.72;3056174;19;937;-49
2022/07/28 01:44:49;;;;;;;;;;;;;;;10.88;100.00;100546.34;3055975;19;1692;-48
2022/07/28 01:45:51;;;;;;;;;;;;;;;10.86;100.00;100529.59;3055783;19;1723;-49
2022/07/28 01:46:56;;;;;;;;;;;;;;;10.84;100.00;100523.50;3056081;19;1603;-50
2022/07/28 01:47:58;;;;;;;;;;;;;;;10.83;100.00;100524.44;3055838;19;1028;-47
2022/07/28 01:49:03;;;;;;;;;;;;;;;10.82;100.00;100536.06;3055807;19;1417;-48
2022/07/28 01:50:05;;;;;;;;;;;;;;;10.80;100.00;100527.28;3056102;19;1040;-48
2022/07/28 01:51:10;;;;;;;;;;;;;;;10.78;100.00;100530.06;3056187;19;962;-50
2022/07/28 01:52:12;;;;;;;;;;;;;;;10.77;100.00;100532.81;3055894;19;1308;-48
2022/07/28 01:53:17;;;;;;;;;;;;;;;10.76;100.00;100523.94;3055901;19;913;-47
2022/07/28 01:54:21;;;;;;;;;;;;;;;10.74;100.00;100528.53;3056077;19;877;-49
2022/07/28 01:55:26;;;;;;;;;;;;;;;10.71;100.00;100525.19;3055630;19;965;-48
2022/07/28 01:56:29;;;;;;;;;;;;;;;10.69;100.00;100532.44;3055990;19;872;-49
2022/07/28 01:57:34;;;;;;;;;;;;;;;10.68;100.00;100528.06;3056106;19;1655;-49
2022/07/28 01:58:37;;;;;;;;;;;;;;;10.66;100.00;100529.94;3055915;19;967;-48
2022/07/28 01:59:41;;;;;;;;;;;;;;;10.64;100.00;100524.69;3055751;19;1012;-48
2022/07/28 02:00:43;;;;;;;;;;;;;;;10.62;100.00;100523.97;3055670;19;956;-48
2022/07/28 02:01:49;;;;;;;;;;;;;;;10.62;100.00;100529.31;3055652;19;948;-49
2022/07/28 02:02:51;;;;;;;;;;;;;;;10.61;100.00;100526.72;3055074;19;1873;-47
2022/07/28 02:03:57;;;;;;;;;;;;;;;10.60;100.00;100519.66;3055778;19;912;-49
2022/07/28 02:04:59;;;;;;;;;;;;;;;10.59;100.00;100528.63;3056479;19;944;-47
2022/07/28 02:06:05;;;;;;;;;;;;;;;10.57;100.00;100520.69;3055762;19;967;-49
2022/07/28 02:07:07;;;;;;;;;;;;;;;10.55;100.00;100516.41;3055529;19;1029;-49
2022/07/28 02:08:11;;;;;;;;;;;;;;;10.54;100.00;100520.03;3055616;19;884;-49
2022/07/28 02:09:13;;;;;;;;;;;;;;;10.52;100.00;100516.59;3055531;19;965;-49
2022/07/28 02:10:18;;;;;;;;;;;;;;;10.50;100.00;100519.38;3055898;19;860;-48
2022/07/28 02:12:39;;;;;;;;;;;;;;;10.48;100.00;100515.06;3055696;19;944;-48
2022/07/28 02:13:41;;;;;;;;;;;;;;;10.43;100.00;100518.88;3055663;19;1046;-48
2022/07/28 02:14:48;;;;;;;;;;;;;;;10.43;100.00;100516.19;3055882;19;888;-49
2022/07/28 02:15:49;;;;;;;;;;;;;;;10.42;100.00;100511.81;3055813;19;952;-47
2022/07/28 02:16:56;;;;;;;;;;;;;;;10.42;100.00;100510.94;3055406;19;979;-47
2022/07/28 02:18:00;;;;;;;;;;;;;;;10.41;100.00;100509.25;3055888;19;995;-48
2022/07/28 02:19:02;;;;;;;;;;;;;;;10.41;100.00;100510.09;3055642;19;901;-48
2022/07/28 02:20:08;;;;;;;;;;;;;;;10.41;100.00;100515.44;3055509;19;1654;-47
2022/07/28 02:21:10;;;;;;;;;;;;;;;10.41;100.00;100503.91;3055530;19;1039;-49
2022/07/28 02:22:14;;;;;;;;;;;;;;;10.40;100.00;100508.38;3055630;19;853;-49
2022/07/28 02:23:16;;;;;;;;;;;;;;;10.40;100.00;100512.84;3054841;19;1871;-48
2022/07/28 02:24:21;;;;;;;;;;;;;;;10.40;100.00;100512.84;3055563;19;891;-48
2022/07/28 02:25:23;;;;;;;;;;;;;;;10.38;100.00;100510.31;3055387;19;1224;-48
2022/07/28 02:26:33;;;;;;;;;;;;;;;10.37;100.00;100503.25;3055387;19;1059;-48
2022/07/28 02:27:36;;;;;;;;;;;;;;;10.37;100.00;100508.59;3055479;19;964;-49
2022/07/28 02:28:41;;;;;;;;;;;;;;;10.37;100.00;100511.25;3055620;19;901;-49
2022/07/28 02:29:44;;;;;;;;;;;;;;;10.36;100.00;100506.88;3055672;19;881;-48
2022/07/28 02:30:59;;;;;;;;;;;;;;;10.36;100.00;100506.88;3055482;19;969;-47
2022/07/28 02:32:13;;;;;;;;;;;;;;;10.36;100.00;100508.66;3055551;19;1335;-47
2022/07/28 02:33:31;;;;;;;;;;;;;;;10.35;100.00;100505.16;3054541;19;932;-48
2022/07/28 02:34:53;;;;;;;;;;;;;;;10.35;100.00;100505.16;3055523;19;1012;-48
2022/07/28 02:36:13;;;;;;;;;;;;;;;10.35;100.00;100502.47;3055649;19;1044;-47
2022/07/28 02:37:16;;;;;;;;;;;;;;;10.33;100.00;100501.72;3055549;19;881;-47
2022/07/28 02:38:24;;;;;;;;;;;;;;;10.34;100.00;100508.75;3055224;19;964;-47
2022/07/28 02:39:30;;;;;;;;;;;;;;;10.34;100.00;100503.44;3055689;19;881;-48
2022/07/28 02:42:03;;;;;;;;;;;;;;;10.32;100.00;100500.00;3049206;19;1844;-48
2022/07/28 02:43:12;;;;;;;;;;;;;;;10.33;100.00;100501.72;3054793;19;1861;-47
2022/07/28 02:44:15;;;;;;;;;;;;;;;10.33;100.00;100496.38;3056275;19;956;-49
2022/07/28 02:45:20;;;;;;;;;;;;;;;10.33;100.00;100492.84;3054719;19;1027;-48
2022/07/28 02:46:23;;;;;;;;;;;;;;;10.33;100.00;100495.50;3055333;19;928;-48
2022/07/28 02:47:30;;;;;;;;;;;;;;;10.32;100.00;100493.78;3054904;19;1674;-50
2022/07/28 02:48:32;;;;;;;;;;;;;;;10.33;100.00;100496.38;3055043;19;964;-50
2022/07/28 02:49:37;;;;;;;;;;;;;;;10.33;100.00;100501.72;3055362;19;1658;-49
2022/07/28 02:50:39;;;;;;;;;;;;;;;10.33;100.00;100504.38;3055353;19;924;-48
2022/07/28 02:51:44;;;;;;;;;;;;;;;10.33;100.00;100501.72;3055165;19;1000;-48
2022/07/28 02:52:46;;;;;;;;;;;;;;;10.35;100.00;100499.81;3055351;19;857;-49
2022/07/28 02:53:50;;;;;;;;;;;;;;;10.36;100.00;100506.00;3055768;19;1027;-49
2022/07/28 02:54:52;;;;;;;;;;;;;;;10.35;100.00;100507.81;3055192;19;910;-48
2022/07/28 02:55:56;;;;;;;;;;;;;;;10.39;100.00;100511.13;3054927;19;1060;-48
2022/07/28 02:56:59;;;;;;;;;;;;;;;10.43;100.00;100505.53;3055309;19;929;-49
2022/07/28 02:58:03;;;;;;;;;;;;;;;10.47;100.00;100508.88;3054917;19;1832;-49
2022/07/28 02:59:08;;;;;;;;;;;;;;;10.49;100.00;100506.97;3055131;19;972;-47
2022/07/28 03:00:13;;;;;;;;;;;;;;;10.49;100.00;100506.97;3055098;19;936;-47
2022/07/28 03:01:18;;;;;;;;;;;;;;;10.52;100.00;100512.09;3055344;19;889;-48
2022/07/28 03:02:23;;;;;;;;;;;;;;;10.53;100.00;100502.28;3055694;19;1734;-49
2022/07/28 03:03:24;;;;;;;;;;;;;;;10.57;100.00;100511.84;3054752;19;1852;-49
2022/07/28 03:05:46;;;;;;;;;;;;;;;10.64;100.00;100507.84;3055297;19;1325;-49
2022/07/28 03:06:48;;;;;;;;;;;;;;;10.67;100.00;100500.50;3055893;19;896;-49
2022/07/28 03:07:55;;;;;;;;;;;;;;;10.71;100.00;100509.19;3054881;19;884;-48
2022/07/28 03:08:57;;;;;;;;;;;;;;;10.79;100.00;100509.56;3055301;19;978;-48
2022/07/28 03:10:02;;;;;;;;;;;;;;;10.86;100.00;100505.56;3055023;19;1216;-48
2022/07/28 03:11:08;;;;;;;;;;;;;;;11.02;100.00;100503.63;3055374;19;959;-47
2022/07/28 03:12:12;;;;;;;;;;;;;;;11.25;100.00;100506.66;3056026;19;1008;-47
2022/07/28 03:13:16;;;;;;;;;;;;;;;11.55;100.00;100510.03;3055960;19;1035;-48
2022/07/28 03:14:18;;;;;;;;;;;;;;;11.90;100.00;100511.28;3055109;19;889;-48
2022/07/28 03:15:23;;;;;;;;;;;;;;;12.28;100.00;100510.50;3055123;19;932;-48
2022/07/28 03:16:25;;;;;;;;;;;;;;;12.72;100.00;100519.94;3055785;19;940;-50
2022/07/28 03:17:30;;;;;;;;;;;;;;;13.13;100.00;100525.94;3056093;19;1003;-48
2022/07/28 03:18:32;;;;;;;;;;;;;;;13.54;100.00;100530.13;3055838;19;893;-49
2022/07/28 03:19:36;;;;;;;;;;;;;;;13.91;100.00;100552.41;3055591;19;985;-50
2022/07/28 03:20:41;;;;;;;;;;;;;;;14.29;100.00;100557.59;3055717;19;849;-50
2022/07/28 03:21:45;;;;;;;;;;;;;;;14.66;100.00;100572.63;3055964;19;996;-48
2022/07/28 03:22:49;;;;;;;;;;;;;;;15.03;100.00;100593.94;3055160;19;1196;-49
2022/07/28 03:23:51;;;;;;;;;;;;;;;15.40;100.00;100600.81;3055179;19;1870;-47
2022/07/28 03:24:56;;;;;;;;;;;;;;;15.76;100.00;100625.78;3054556;19;1015;-48
2022/07/28 03:25:59;;;;;;;;;;;;;;;16.13;100.00;100635.25;3055154;19;992;-49
2022/07/28 03:27:04;;;;;;;;;;;;;;;16.53;100.00;100648.97;3054815;19;873;-49
2022/07/28 03:28:07;;;;;;;;;;;;;;;16.95;100.00;100670.59;3055833;19;940;-50
2022/07/28 03:29:11;;;;;;;;;;;;;;;17.29;100.00;100676.63;3055661;19;976;-50
2022/07/28 03:30:14;;;;;;;;;;;;;;;17.63;100.00;100694.31;3055772;19;976;-49
2022/07/28 03:31:18;;;;;;;;;;;;;;;17.96;100.00;100700.44;3054704;19;881;-48
2022/07/28 03:32:20;;;;;;;;;;;;;;;18.32;100.00;100713.34;3054892;19;936;-48
2022/07/28 03:33:25;;;;;;;;;;;;;;;18.69;100.00;100720.84;3054680;19;934;-49
2022/07/28 03:34:27;;;;;;;;;;;;;;;19.08;100.00;100727.09;3055084;19;1178;-49
2022/07/28 03:35:33;;;;;;;;;;;;;;;19.44;100.00;100733.63;3054730;19;937;-49
2022/07/28 03:36:41;;;;;;;;;;;;;;;19.82;100.00;100734.53;3056635;19;906;-48
2022/07/28 03:37:43;;;;;;;;;;;;;;;20.16;100.00;100741.13;3055418;19;1275;-50
2022/07/28 03:38:50;;;;;;;;;;;;;;;20.51;100.00;100739.53;3054566;19;885;-49
2022/07/28 03:39:52;;;;;;;;;;;;;;;20.88;100.00;100748.41;3054785;19;1136;-48
2022/07/28 03:40:58;;;;;;;;;;;;;;;21.24;100.00;100743.84;3054428;19;1630;-49
2022/07/28 03:42:00;;;;;;;;;;;;;;;21.55;100.00;100752.38;3054150;19;1673;-47
2022/07/28 03:43:07;;;;;;;;;;;;;;;21.81;100.00;100758.69;3054472;19;909;-47
2022/07/28 03:44:09;;;;;;;;;;;;;;;22.07;97.36;100753.25;3053725;19;1861;-49
2022/07/28 03:45:15;;;;;;;;;;;;;;;22.30;94.12;100756.25;3057239;19;1809;-49
2022/07/28 03:46:17;;;;;;;;;;;;;;;22.56;91.52;100754.31;3058971;19;1334;-50
2022/07/28 03:47:22;;;;;;;;;;;;;;;22.88;89.07;100758.16;3057520;19;1004;-49
2022/07/28 03:48:30;;;;;;;;;;;;;;;23.17;86.50;100763.13;3057964;19;944;-49
2022/07/28 03:49:35;;;;;;;;;;;;;;;23.47;83.67;100767.91;3058779;19;976;-48
2022/07/28 03:50:37;;;;;;;;;;;;;;;23.77;81.46;100770.97;3059070;19;813;-50
2022/07/28 03:51:41;;;;;;;;;;;;;;;24.04;79.39;100774.13;3058347;19;972;-48
2022/07/28 03:52:43;;;;;;;;;;;;;;;24.31;77.34;100766.56;3058986;19;825;-49
2022/07/28 03:53:48;;;;;;;;;;;;;;;24.59;75.58;100784.19;3058402;19;1048;-51
2022/07/28 03:54:50;;;;;;;;;;;;;;;24.88;73.98;100777.19;3058834;19;897;-48
2022/07/28 03:55:54;;;;;;;;;;;;;;;25.16;72.19;100775.69;3058001;19;1694;-49
2022/07/28 03:56:56;;;;;;;;;;;;;;;25.48;70.98;100780.88;3058194;19;952;-48
2022/07/28 03:58:00;;;;;;;;;;;;;;;25.77;69.04;100779.28;3057854;19;973;-50
2022/07/28 03:59:02;;;;;;;;;;;;;;;26.06;67.90;100790.28;3058472;19;925;-50
2022/07/28 04:00:07;;;;;;;;;;;;;;;26.34;66.54;100789.63;3057806;19;972;-50
2022/07/28 04:01:13;;;;;;;;;;;;;;;26.63;65.14;100775.06;3058521;19;897;-51
2022/07/28 04:02:17;;;;;;;;;;;;;;;26.88;63.77;100788.22;3057924;19;1032;-51
2022/07/28 04:03:20;;;;;;;;;;;;;;;27.11;62.89;100792.72;3058427;19;960;-50
2022/07/28 04:04:44;;;;;;;;;;;;;;;27.42;61.76;100793.22;3056290;19;1849;-50
2022/07/28 04:05:47;;;;;;;;;;;;;;;27.65;60.83;100794.97;3057485;19;1183;-48
2022/07/28 04:06:51;;;;;;;;;;;;;;;27.86;59.79;100808.63;3057868;19;1037;-48
2022/07/28 04:07:53;;;;;;;;;;;;;;;28.06;58.90;100806.88;3058358;19;873;-50
2022/07/28 04:08:58;;;;;;;;;;;;;;;28.22;58.17;100809.34;3058073;19;1303;-51
2022/07/28 04:10:00;;;;;;;;;;;;;;;28.45;57.61;100799.97;3057875;19;1071;-48
2022/07/28 04:11:04;;;;;;;;;;;;;;;28.68;57.08;100803.25;3057571;19;1731;-50
2022/07/28 04:12:06;;;;;;;;;;;;;;;28.93;56.67;100804.44;3058154;19;909;-51
2022/07/28 04:13:11;;;;;;;;;;;;;;;29.15;55.91;100809.78;3058184;19;878;-48
2022/07/28 04:14:13;;;;;;;;;;;;;;;29.38;55.60;100804.75;3057956;19;1004;-49
2022/07/28 04:15:20;;;;;;;;;;;;;;;29.61;54.71;100802.47;3058483;19;1426;-50
2022/07/28 04:16:22;;;;;;;;;;;;;;;29.86;54.43;100804.56;3057896;19;928;-49
2022/07/28 04:17:26;;;;;;;;;;;;;;;30.01;53.48;100807.97;3058014;19;987;-49
2022/07/28 04:18:28;;;;;;;;;;;;;;;30.17;52.98;100824.06;3058282;19;886;-49
2022/07/28 04:19:33;;;;;;;;;;;;;;;30.32;52.94;100821.88;3057997;19;961;-50
2022/07/28 04:20:35;;;;;;;;;;;;;;;30.47;51.93;100813.38;3058151;19;988;-49
2022/07/28 04:21:39;;;;;;;;;;;;;;;30.61;51.59;100819.72;3057964;19;901;-49
2022/07/28 04:22:41;;;;;;;;;;;;;;;30.76;51.24;100817.56;3059518;19;872;-49
2022/07/28 04:23:45;;;;;;;;;;;;;;;30.91;51.14;100814.53;3057567;19;945;-49
2022/07/28 04:24:47;;;;;;;;;;;;;;;31.07;50.73;100817.59;3057026;19;1846;-48
2022/07/28 04:25:52;;;;;;;;;;;;;;;31.24;50.51;100817.97;3058160;19;877;-49
2022/07/28 04:26:56;;;;;;;;;;;;;;;31.42;49.85;100817.19;3057800;19;847;-49
2022/07/28 04:27:58;;;;;;;;;;;;;;;31.47;49.32;100815.47;3058157;19;917;-49
2022/07/28 04:29:02;;;;;;;;;;;;;;;31.62;48.82;100823.44;3057769;19;889;-49
2022/07/28 04:30:05;;;;;;;;;;;;;;;31.80;48.57;100817.16;3058308;19;1325;-49
2022/07/28 04:31:10;;;;;;;;;;;;;;;31.94;48.53;100817.88;3057747;19;1047;-49
2022/07/28 04:32:12;;;;;;;;;;;;;;;32.04;48.19;100820.97;3058014;19;1027;-50
2022/07/28 04:33:18;;;;;;;;;;;;;;;32.21;48.15;100833.16;3057791;19;984;-49
2022/07/28 04:34:22;;;;;;;;;;;;;;;32.38;47.66;100828.72;3058278;19;853;-48
2022/07/28 04:35:26;;;;;;;;;;;;;;;32.50;47.20;100823.28;3057955;19;881;-51
2022/07/28 04:36:31;;;;;;;;;;;;;;;32.58;47.20;100819.38;3057729;19;960;-49
2022/07/28 04:37:33;;;;;;;;;;;;;;;32.77;46.90;100829.34;3058006;19;920;-50
2022/07/28 04:38:37;;;;;;;;;;;;;;;32.92;46.82;100830.66;3057709;19;968;-49
2022/07/28 04:39:39;;;;;;;;;;;;;;;33.07;46.56;100827.50;3057887;19;936;-49
2022/07/28 04:40:44;;;;;;;;;;;;;;;33.19;46.03;100825.63;3057786;19;928;-49
2022/07/28 04:41:45;;;;;;;;;;;;;;;33.16;46.41;100837.13;3056871;19;1147;-48
2022/07/28 04:42:50;;;;;;;;;;;;;;;33.14;46.46;100833.75;3057734;19;861;-49
2022/07/28 04:43:52;;;;;;;;;;;;;;;33.15;47.01;100834.59;3057777;19;991;-50
2022/07/28 04:44:56;;;;;;;;;;;;;;;33.19;47.09;100836.69;3057159;19;1846;-48
2022/07/28 04:45:58;;;;;;;;;;;;;;;33.25;46.99;100835.75;3057915;19;882;-49
2022/07/28 04:47:03;;;;;;;;;;;;;;;33.33;47.03;100830.97;3057570;19;965;-49
2022/07/28 04:48:07;;;;;;;;;;;;;;;33.43;46.68;100825.72;3057764;19;1039;-49
2022/07/28 04:49:11;;;;;;;;;;;;;;;33.55;46.38;100823.81;3056605;19;1032;-48
2022/07/28 04:50:14;;;;;;;;;;;;;;;33.68;45.79;100822.78;3056622;19;1059;-49
2022/07/28 04:51:22;;;;;;;;;;;;;;;33.77;45.76;100822.22;3057759;19;865;-49
2022/07/28 04:52:24;;;;;;;;;;;;;;;33.91;45.86;100829.22;3056745;19;1025;-48
2022/07/28 04:53:31;;;;;;;;;;;;;;;34.08;45.68;100828.47;3056642;19;1047;-49
2022/07/28 04:54:33;;;;;;;;;;;;;;;34.20;45.11;100832.94;3058097;19;841;-49
2022/07/28 04:55:38;;;;;;;;;;;;;;;34.32;44.88;100825.50;3057754;19;1585;-48
2022/07/28 04:56:40;;;;;;;;;;;;;;;34.46;45.36;100825.22;3057539;19;879;-50
2022/07/28 04:57:44;;;;;;;;;;;;;;;34.60;44.97;100821.13;3057370;19;983;-50
2022/07/28 04:58:46;;;;;;;;;;;;;;;34.69;44.79;100826.03;3057589;19;928;-52
2022/07/28 04:59:53;;;;;;;;;;;;;;;34.69;44.61;100814.09;3057455;19;884;-48
2022/07/28 05:00:57;;;;;;;;;;;;;;;34.76;44.45;100825.09;3057747;19;920;-48
2022/07/28 05:02:01;;;;;;;;;;;;;;;34.72;44.01;100824.69;3057258;19;1614;-49
2022/07/28 05:03:04;;;;;;;;;;;;;;;34.63;44.42;100824.25;3057599;19;1063;-48
2022/07/28 05:04:08;;;;;;;;;;;;;;;34.52;44.33;100825.13;3057344;19;979;-50
2022/07/28 05:05:10;;;;;;;;;;;;;;;34.37;44.66;100827.53;3057257;19;1863;-49
2022/07/28 05:06:17;;;;;;;;;;;;;;;34.18;44.83;100820.41;3057289;19;1104;-49
2022/07/28 05:07:19;;;;;;;;;;;;;;;33.92;45.38;100822.59;3057579;19;963;-49
2022/07/28 05:08:24;;;;;;;;;;;;;;;33.42;45.58;100818.50;3057189;19;1074;-49
2022/07/28 05:09:27;;;;;;;;;;;;;;;32.17;47.48;100829.13;3057633;19;857;-49
2022/07/28 05:10:32;;;;;;;;;;;;;;;30.55;50.34;100821.44;3057514;19;984;-49
2022/07/28 05:11:35;;;;;;;;;;;;;;;29.32;53.33;100813.84;3057556;19;1075;-50
2022/07/28 05:12:39;;;;;;;;;;;;;;;28.42;55.83;100819.59;3057070;19;996;-51
2022/07/28 05:13:44;;;;;;;;;;;;;;;27.60;58.01;100812.84;3057570;19;854;-48
2022/07/28 05:14:46;;;;;;;;;;;;;;;26.88;60.10;100809.28;3057512;19;957;-49
2022/07/28 05:15:51;;;;;;;;;;;;;;;26.25;61.11;100812.63;3057035;19;972;-50
2022/07/28 05:16:53;;;;;;;;;;;;;;;25.58;62.61;100813.44;3057364;19;1095;-50
2022/07/28 05:17:57;;;;;;;;;;;;;;;25.03;64.80;100802.75;3057306;19;1059;-57
2022/07/28 05:18:59;;;;;;;;;;;;;;;24.48;67.02;100802.84;3057409;19;916;-50
2022/07/28 05:20:04;;;;;;;;;;;;;;;23.96;70.25;100806.88;3056917;19;1031;-49
2022/07/28 05:21:05;;;;;;;;;;;;;;;23.50;73.90;100802.13;3057147;19;1015;-48
2022/07/28 05:22:10;;;;;;;;;;;;;;;23.07;76.54;100806.84;3057067;19;1667;-48
2022/07/28 05:23:12;;;;;;;;;;;;;;;22.66;79.74;100796.84;3057096;19;901;-49
2022/07/28 05:24:16;;;;;;;;;;;;;;;22.30;82.18;100793.47;3057024;19;877;-48
2022/07/28 05:25:19;;;;;;;;;;;;;;;21.95;85.66;100803.44;3056810;19;1857;-48
2022/07/28 05:26:25;;;;;;;;;;;;;;;21.63;87.42;100804.03;3056497;19;1039;-47
2022/07/28 05:27:27;;;;;;;;;;;;;;;21.37;90.72;100800.47;3056239;19;905;-47
2022/07/28 05:28:31;;;;;;;;;;;;;;;21.10;93.33;100802.22;3055663;19;1093;-50
2022/07/28 05:29:37;;;;;;;;;;;;;;;20.90;96.63;100797.91;3056392;19;1411;-49
2022/07/28 05:30:50;;;;;;;;;;;;;;;20.67;99.06;100793.94;3056189;19;1036;-50
2022/07/28 05:31:53;;;;;;;;;;;;;;;20.48;100.00;100806.59;3056460;19;928;-50
2022/07/28 05:33:00;;;;;;;;;;;;;;;20.30;100.00;100802.94;3056289;19;969;-49
2022/07/28 05:34:01;;;;;;;;;;;;;;;20.18;100.00;100803.25;3056251;19;956;-50
2022/07/28 05:35:06;;;;;;;;;;;;;;;20.07;100.00;100801.59;3055503;19;988;-50
2022/07/28 05:36:12;;;;;;;;;;;;;;;19.96;100.00;100804.50;3055533;19;965;-51
2022/07/28 05:37:14;;;;;;;;;;;;;;;19.81;100.00;100805.94;3055835;19;984;-49
2022/07/28 05:38:18;;;;;;;;;;;;;;;19.70;100.00;100799.69;3056142;19;934;-50
2022/07/28 05:39:20;;;;;;;;;;;;;;;19.61;100.00;100795.16;3057077;19;932;-49
2022/07/28 05:40:26;;;;;;;;;;;;;;;19.54;100.00;100801.31;3056236;19;1810;-49